createdAt,value
2022-12-15T00:04:10.963Z,8.45
2022-12-15T00:08:32.024Z,7.82
2022-12-15T00:12:53.550Z,7.35
2022-12-15T00:17:15.062Z,6.88
2022-12-15T00:21:36.378Z,6.43
2022-12-15T00:25:57.594Z,5.97
2022-12-15T00:30:18.626Z,6.22
2022-12-15T00:34:39.794Z,6.65
2022-12-15T00:38:45.140Z,7.00
2022-12-15T00:42:49.526Z,8.60
2022-12-15T00:46:55.436Z,10.20
2022-12-15T00:50:58.207Z,11.18
2022-12-15T00:55:19.299Z,11.75
2022-12-15T00:59:40.862Z,12.10
2022-12-15T01:04:01.987Z,9.05
2022-12-15T01:08:23.193Z,10.73
2022-12-15T01:12:44.374Z,9.90
2022-12-15T01:17:05.548Z,7.95
2022-12-15T01:21:13.942Z,6.68
2022-12-15T01:25:18.793Z,7.90
2022-12-15T01:29:21.570Z,8.57
2022-12-15T01:33:24.321Z,8.15
2022-12-15T01:37:27.079Z,7.78
2022-12-15T01:41:30.071Z,6.88
2022-12-15T01:45:33.247Z,6.15
2022-12-15T01:49:35.951Z,5.97
2022-12-15T01:53:45.472Z,5.45
2022-12-15T01:57:58.813Z,5.28
2022-12-15T02:02:02.875Z,6.43
2022-12-15T02:06:06.970Z,7.43
2022-12-15T02:10:10.901Z,6.40
2022-12-15T02:14:25.909Z,8.35
2022-12-15T02:18:37.760Z,8.23
2022-12-15T02:23:05.668Z,7.60
2022-12-15T02:27:35.671Z,10.73
2022-12-15T02:31:52.249Z,7.70
2022-12-15T02:36:01.814Z,10.68
2022-12-15T02:40:07.959Z,8.73
2022-12-15T02:44:25.802Z,6.50
2022-12-15T02:48:57.121Z,8.23
2022-12-15T02:53:31.649Z,7.57
2022-12-15T02:57:46.810Z,7.72
2022-12-15T03:02:00.224Z,10.15
2022-12-15T03:06:05.355Z,10.65
2022-12-15T03:10:09.546Z,14.80
2022-12-15T03:14:12.507Z,16.02
2022-12-15T03:18:15.726Z,16.92
2022-12-15T03:22:18.493Z,21.13
2022-12-15T03:26:21.803Z,19.90
2022-12-15T03:30:24.681Z,20.48
2022-12-15T03:34:27.476Z,21.67
2022-12-15T03:38:30.373Z,19.63
2022-12-15T03:42:48.554Z,18.23
2022-12-15T03:46:51.414Z,16.92
2022-12-15T03:50:55.420Z,18.73
2022-12-15T03:54:58.768Z,19.80
2022-12-15T03:59:01.635Z,22.27
2022-12-15T04:03:04.556Z,20.02
2022-12-15T04:07:07.529Z,16.27
2022-12-15T04:11:10.228Z,19.35
2022-12-15T04:15:13.103Z,14.57
2022-12-15T04:19:34.276Z,19.55
2022-12-15T04:23:37.011Z,19.33
2022-12-15T04:28:01.547Z,22.83
2022-12-15T04:32:23.078Z,18.58
2022-12-15T04:36:45.051Z,22.33
2022-12-15T04:41:06.158Z,15.43
2022-12-15T04:45:28.463Z,18.67
2022-12-15T04:49:49.758Z,15.93
2022-12-15T04:54:11.247Z,20.30
2022-12-15T04:58:32.430Z,18.20
2022-12-15T05:02:53.613Z,17.80
2022-12-15T05:07:14.655Z,18.15
2022-12-15T05:11:35.828Z,16.00
2022-12-15T05:15:57.165Z,18.52
2022-12-15T05:20:18.465Z,17.10
2022-12-15T05:24:39.833Z,21.98
2022-12-15T05:29:00.961Z,16.50
2022-12-15T05:33:05.153Z,19.85
2022-12-15T05:37:08.319Z,16.42
2022-12-15T05:41:11.333Z,18.65
2022-12-15T05:45:14.183Z,19.70
2022-12-15T05:49:18.699Z,20.05
2022-12-15T05:53:21.482Z,16.88
2022-12-15T05:57:24.422Z,19.58
2022-12-15T06:01:27.994Z,23.17
2022-12-15T06:05:30.803Z,22.00
2022-12-15T06:09:33.586Z,17.80
2022-12-15T06:13:36.302Z,17.88
2022-12-15T06:17:39.206Z,15.85
2022-12-15T06:21:42.363Z,16.50
2022-12-15T06:25:45.031Z,17.73
2022-12-15T06:29:48.378Z,16.13
2022-12-15T06:33:59.244Z,17.90
2022-12-15T06:38:03.998Z,21.58
2022-12-15T06:42:06.942Z,16.30
2022-12-15T06:46:10.445Z,16.33
2022-12-15T06:50:13.390Z,18.20
2022-12-15T06:54:16.124Z,18.77
2022-12-15T06:58:18.889Z,21.75
2022-12-15T07:02:28.492Z,18.55
2022-12-15T07:06:38.997Z,25.33
2022-12-15T07:10:44.114Z,23.23
2022-12-15T07:14:53.038Z,19.77
2022-12-15T07:18:56.274Z,22.95
2022-12-15T07:22:59.007Z,23.08
2022-12-15T07:27:01.849Z,22.63
2022-12-15T07:31:07.416Z,21.90
2022-12-15T07:35:13.596Z,20.92
2022-12-15T07:39:16.919Z,18.70
2022-12-15T07:43:21.305Z,21.10
2022-12-15T07:47:24.902Z,22.83
2022-12-15T07:51:27.882Z,20.58
2022-12-15T07:55:57.340Z,21.13
2022-12-15T07:59:53.675Z,22.02
2022-12-15T08:03:56.797Z,22.35
2022-12-15T08:07:59.792Z,25.08
2022-12-15T08:12:02.851Z,21.10
2022-12-15T08:16:05.815Z,21.60
2022-12-15T08:20:10.210Z,25.45
2022-12-15T08:24:14.424Z,22.38
2022-12-15T08:28:17.284Z,19.23
2022-12-15T08:32:20.330Z,21.77
2022-12-15T08:36:23.354Z,23.70
2022-12-15T08:40:26.158Z,19.52
2022-12-15T08:44:28.821Z,22.33
2022-12-15T08:48:32.071Z,20.13
2022-12-15T08:52:35.288Z,19.27
2022-12-15T08:56:38.070Z,23.15
2022-12-15T09:00:40.891Z,21.88
2022-12-15T09:04:45.540Z,22.58
2022-12-15T09:08:50.396Z,19.98
2022-12-15T09:12:53.458Z,16.52
2022-12-15T09:16:56.366Z,17.25
2022-12-15T09:21:03.857Z,20.70
2022-12-15T09:25:07.460Z,18.60
2022-12-15T09:29:13.426Z,23.63
2022-12-15T09:33:16.269Z,18.87
2022-12-15T09:37:20.078Z,22.13
2022-12-15T13:46:20.697Z,2.67
2022-12-15T14:04:07.777Z,4.22
2022-12-15T14:08:18.445Z,7.13
2022-12-15T14:13:15.481Z,4.43
2022-12-15T14:21:34.452Z,5.60
2022-12-15T14:26:22.812Z,3.67
2022-12-15T15:42:32.495Z,6.82
2022-12-15T16:16:54.912Z,5.40
2022-12-15T16:26:37.504Z,9.88
2022-12-15T16:52:07.599Z,5.95
2022-12-15T16:56:42.541Z,3.53
2022-12-15T17:01:36.829Z,5.65
2022-12-15T17:05:58.515Z,4.30
2022-12-15T18:09:44.868Z,5.30
2022-12-15T18:18:22.126Z,2.60
2022-12-15T18:31:58.478Z,3.40
2022-12-15T18:36:26.859Z,3.20
2022-12-15T18:41:18.978Z,3.90
2022-12-15T18:51:46.776Z,4.53
2022-12-15T19:02:46.124Z,2.50
2022-12-15T19:13:27.789Z,1.88
2022-12-15T19:31:08.957Z,2.33
2022-12-15T19:35:44.244Z,3.90
